createdAt,value
2024-02-24T00:00:46.143Z,0.82
2024-02-24T00:01:46.083Z,0.84
2024-02-24T00:02:46.090Z,0.86
2024-02-24T00:03:46.067Z,0.86
2024-02-24T00:04:46.193Z,0.86
2024-02-24T00:05:46.101Z,0.86
2024-02-24T00:06:46.084Z,0.86
2024-02-24T00:07:46.041Z,0.84
2024-02-24T00:08:46.057Z,0.81
2024-02-24T00:09:45.996Z,0.80
2024-02-24T00:10:46.022Z,0.80
2024-02-24T00:11:46.056Z,0.81
2024-02-24T00:12:45.999Z,0.81
2024-02-24T00:13:45.954Z,0.84
2024-02-24T00:14:45.970Z,0.82
2024-02-24T00:15:45.958Z,0.84
2024-02-24T00:16:45.955Z,0.84
2024-02-24T00:17:46.030Z,0.89
2024-02-24T00:18:45.972Z,0.88
2024-02-24T00:19:45.891Z,0.89
2024-02-24T00:20:45.957Z,0.90
2024-02-24T00:21:45.871Z,0.92
2024-02-24T00:22:45.898Z,0.90
2024-02-24T00:23:45.875Z,0.92
2024-02-24T00:24:45.835Z,0.92
2024-02-24T00:25:45.821Z,0.93
2024-02-24T00:26:45.842Z,0.95
2024-02-24T00:27:45.796Z,0.95
2024-02-24T00:28:45.821Z,0.96
2024-02-24T00:29:45.850Z,0.98
2024-02-24T00:30:45.769Z,0.99
2024-02-24T00:31:45.761Z,1.00
2024-02-24T00:32:45.825Z,1.04
2024-02-24T00:33:45.813Z,1.04
2024-02-24T00:34:45.751Z,1.07
2024-02-24T00:35:45.808Z,1.08
2024-02-24T00:36:45.716Z,1.08
2024-02-24T00:37:45.698Z,1.11
2024-02-24T00:38:45.745Z,1.13
2024-02-24T00:39:45.666Z,1.13
2024-02-24T00:40:45.694Z,1.17
2024-02-24T00:41:45.668Z,1.18
2024-02-24T00:42:45.634Z,1.20
2024-02-24T00:43:45.621Z,1.20
2024-02-24T00:44:45.679Z,1.20
2024-02-24T00:45:45.596Z,1.24
2024-02-24T00:46:45.595Z,1.25
2024-02-24T00:47:45.674Z,1.28
2024-02-24T00:48:45.590Z,1.29
2024-02-24T00:49:45.556Z,1.31
2024-02-24T00:50:45.568Z,1.32
2024-02-24T00:51:45.533Z,1.34
2024-02-24T00:52:45.541Z,1.32
2024-02-24T00:53:45.637Z,1.32
2024-02-24T00:54:45.503Z,1.34
2024-02-24T00:55:45.504Z,1.35
2024-02-24T00:56:45.509Z,1.35
2024-02-24T00:57:45.458Z,1.35
2024-02-24T00:58:45.466Z,1.35
2024-02-24T00:59:45.512Z,1.35
2024-02-24T01:00:45.453Z,1.38
2024-02-24T01:01:45.468Z,1.39
2024-02-24T01:02:45.481Z,1.39
2024-02-24T01:03:45.417Z,1.43
2024-02-24T01:04:45.416Z,1.43
2024-02-24T01:05:45.412Z,1.44
2024-02-24T01:06:45.367Z,1.44
2024-02-24T01:07:45.402Z,1.46
2024-02-24T01:08:45.388Z,1.47
2024-02-24T01:09:45.341Z,1.49
2024-02-24T01:10:45.422Z,1.50
2024-02-24T01:11:45.382Z,1.52
2024-02-24T01:12:45.301Z,1.53
2024-02-24T01:13:45.330Z,1.56
2024-02-24T01:14:45.317Z,1.56
2024-02-24T01:15:45.253Z,1.57
2024-02-24T01:16:45.280Z,1.57
2024-02-24T01:17:45.317Z,1.60
2024-02-24T01:18:45.812Z,1.60
2024-02-24T01:19:45.222Z,1.63
2024-02-24T01:20:45.329Z,1.65
2024-02-24T01:21:45.193Z,1.65
2024-02-24T01:22:45.208Z,1.65
2024-02-24T01:23:45.217Z,1.67
2024-02-24T01:24:45.189Z,1.67
2024-02-24T01:25:45.148Z,1.70
2024-02-24T01:26:45.223Z,1.70
2024-02-24T01:27:45.145Z,1.74
2024-02-24T01:28:45.134Z,1.75
2024-02-24T01:29:45.182Z,1.75
2024-02-24T01:30:45.093Z,1.77
2024-02-24T01:31:45.085Z,1.77
2024-02-24T01:32:45.249Z,1.79
2024-02-24T01:33:45.127Z,1.82
2024-02-24T01:34:45.091Z,1.83
2024-02-24T01:35:45.186Z,1.85
2024-02-24T01:36:45.035Z,1.83
2024-02-24T01:37:45.016Z,1.86
2024-02-24T01:38:45.039Z,1.88
2024-02-24T01:39:45.020Z,1.89
2024-02-24T01:40:45.008Z,1.89
2024-02-24T01:41:44.982Z,1.90
2024-02-24T01:42:44.983Z,1.92
2024-02-24T01:43:44.947Z,1.92
2024-02-24T01:44:45.007Z,1.93
2024-02-24T01:45:44.948Z,1.95
2024-02-24T01:46:44.922Z,1.93
2024-02-24T01:47:45.000Z,1.95
2024-02-24T01:48:44.987Z,1.98
2024-02-24T01:49:44.881Z,1.95
2024-02-24T01:50:44.911Z,1.98
2024-02-24T01:51:44.853Z,2.01
2024-02-24T01:52:44.861Z,2.01
2024-02-24T01:53:44.986Z,2.01
2024-02-24T01:54:44.853Z,2.02
2024-02-24T01:55:44.811Z,2.05
2024-02-24T01:56:44.857Z,2.02
2024-02-24T01:57:44.889Z,2.05
2024-02-24T01:58:44.819Z,2.07
2024-02-24T01:59:44.870Z,2.07
2024-02-24T02:00:44.817Z,2.08
2024-02-24T02:01:44.751Z,2.08
2024-02-24T02:02:44.840Z,2.11
2024-02-24T02:03:44.752Z,2.11
2024-02-24T02:04:44.798Z,2.11
2024-02-24T02:05:44.848Z,2.09
2024-02-24T02:06:44.751Z,2.04
2024-02-24T02:07:44.702Z,2.02
2024-02-24T02:08:44.710Z,2.02
2024-02-24T02:09:44.665Z,2.05
2024-02-24T02:10:44.688Z,2.05
2024-02-24T02:11:52.382Z,2.08
2024-02-24T02:12:44.687Z,2.08
2024-02-24T02:13:44.614Z,2.05
2024-02-24T02:14:44.669Z,2.07
2024-02-24T02:15:44.606Z,2.08
2024-02-24T02:16:44.580Z,2.08
2024-02-24T02:17:44.685Z,2.08
2024-02-24T02:18:44.621Z,2.08
2024-02-24T02:19:44.582Z,2.07
2024-02-24T02:20:44.623Z,2.08
2024-02-24T02:21:44.550Z,2.07
2024-02-24T02:22:44.522Z,2.07
2024-02-24T02:23:44.613Z,2.05
2024-02-24T02:24:44.504Z,2.05
2024-02-24T02:25:44.490Z,2.02
2024-02-24T02:26:44.538Z,2.04
2024-02-24T02:27:44.509Z,2.04
2024-02-24T02:28:44.441Z,2.02
2024-02-24T02:29:44.547Z,2.01
2024-02-24T02:30:44.437Z,2.01
2024-02-24T02:31:44.416Z,1.92
2024-02-24T02:32:44.573Z,1.86
2024-02-24T02:33:44.587Z,1.82
2024-02-24T02:34:44.394Z,1.82
2024-02-24T02:35:44.458Z,1.81
2024-02-24T02:36:44.358Z,1.79
2024-02-24T02:37:44.370Z,1.79
2024-02-24T02:38:44.368Z,1.75
2024-02-24T02:39:44.328Z,1.72
2024-02-24T02:40:44.309Z,1.70
2024-02-24T02:41:44.343Z,1.71
2024-02-24T02:42:44.290Z,1.72
2024-02-24T02:43:44.286Z,1.70
2024-02-24T02:44:44.335Z,1.68
2024-02-24T02:45:44.281Z,1.63
2024-02-24T02:46:44.256Z,1.64
2024-02-24T02:47:44.384Z,1.61
2024-02-24T02:48:44.382Z,1.57
2024-02-24T02:49:44.282Z,1.56
2024-02-24T02:50:44.309Z,1.53
2024-02-24T02:51:44.212Z,1.53
2024-02-24T02:52:44.174Z,1.50
2024-02-24T02:53:44.270Z,1.53
2024-02-24T02:54:44.170Z,1.56
2024-02-24T02:55:44.168Z,1.56
2024-02-24T02:56:44.188Z,1.56
2024-02-24T02:57:44.146Z,1.57
2024-02-24T02:58:44.135Z,1.57
2024-02-24T02:59:44.175Z,1.57
2024-02-24T03:00:44.148Z,1.57
2024-02-24T03:01:44.100Z,1.57
2024-02-24T03:02:44.133Z,1.60
2024-02-24T03:03:44.109Z,1.57
2024-02-24T03:04:44.054Z,1.57
2024-02-24T03:05:44.111Z,1.57
2024-02-24T03:06:44.067Z,1.57
2024-02-24T03:07:44.065Z,1.61
2024-02-24T03:08:44.040Z,1.61
2024-02-24T03:09:44.000Z,1.61
2024-02-24T03:10:44.045Z,1.65
2024-02-24T03:11:44.126Z,1.67
2024-02-24T03:12:43.961Z,1.70
2024-02-24T03:13:43.947Z,1.70
2024-02-24T03:14:44.018Z,1.72
2024-02-24T03:15:43.937Z,1.72
2024-02-24T03:16:43.906Z,1.74
2024-02-24T03:17:43.963Z,1.74
2024-02-24T03:18:44.482Z,1.75
2024-02-24T03:19:44.208Z,1.74
2024-02-24T03:20:43.920Z,1.72
2024-02-24T03:21:43.859Z,1.72
2024-02-24T03:22:43.845Z,1.75
2024-02-24T03:23:43.918Z,1.75
2024-02-24T03:24:43.831Z,1.75
2024-02-24T03:25:43.825Z,1.77
2024-02-24T03:26:43.866Z,1.79
2024-02-24T03:27:43.790Z,1.79
2024-02-24T03:28:43.773Z,1.81
2024-02-24T03:29:43.821Z,1.77
2024-02-24T03:30:43.748Z,1.77
2024-02-24T03:31:43.772Z,1.79
2024-02-24T03:32:43.897Z,1.79
2024-02-24T03:33:43.797Z,1.79
2024-02-24T03:34:43.718Z,1.79
2024-02-24T03:35:43.737Z,1.79
2024-02-24T03:36:43.703Z,1.75
2024-02-24T03:37:43.713Z,1.74
2024-02-24T03:38:43.748Z,1.72
2024-02-24T03:39:43.653Z,1.70
2024-02-24T03:40:43.673Z,1.67
2024-02-24T03:41:43.668Z,1.65
2024-02-24T03:42:43.610Z,1.65
2024-02-24T03:43:43.638Z,1.67
2024-02-24T03:44:43.602Z,1.68
2024-02-24T03:45:43.626Z,1.67
2024-02-24T03:46:43.584Z,1.67
2024-02-24T03:47:43.732Z,1.65
2024-02-24T03:48:43.591Z,1.64
2024-02-24T03:49:43.557Z,1.67
2024-02-24T03:50:43.602Z,1.65
2024-02-24T03:51:43.530Z,1.67
2024-02-24T03:52:43.517Z,1.67
2024-02-24T03:53:43.586Z,1.67
2024-02-24T03:54:43.485Z,1.65
2024-02-24T03:55:43.528Z,1.64
2024-02-24T03:56:43.511Z,1.67
2024-02-24T03:57:43.472Z,1.68
2024-02-24T03:58:43.541Z,1.67
2024-02-24T03:59:43.497Z,1.68
2024-02-24T04:00:43.485Z,1.65
2024-02-24T04:01:43.439Z,1.67
2024-02-24T04:02:43.484Z,1.68
2024-02-24T04:03:43.423Z,1.68
2024-02-24T04:04:43.387Z,1.65
2024-02-24T04:05:43.489Z,1.64
2024-02-24T04:06:43.446Z,1.61
2024-02-24T04:07:43.348Z,1.60
2024-02-24T04:08:43.404Z,1.56
2024-02-24T04:09:43.381Z,1.56
2024-02-24T04:10:43.310Z,1.57
2024-02-24T04:11:43.409Z,1.60
2024-02-24T04:12:43.297Z,1.61
2024-02-24T04:13:43.327Z,1.61
2024-02-24T04:14:43.319Z,1.63
2024-02-24T04:15:43.252Z,1.65
2024-02-24T04:16:43.242Z,1.67
2024-02-24T04:17:43.405Z,1.68
2024-02-24T04:18:43.267Z,1.68
2024-02-24T04:19:43.248Z,1.68
2024-02-24T04:20:43.240Z,1.70
2024-02-24T04:21:43.202Z,1.71
2024-02-24T04:22:43.192Z,1.71
2024-02-24T04:23:43.208Z,1.71
2024-02-24T04:24:43.163Z,1.68
2024-02-24T04:25:43.160Z,1.68
2024-02-24T04:26:43.199Z,1.65
2024-02-24T04:27:43.140Z,1.68
2024-02-24T04:28:43.101Z,1.68
2024-02-24T04:29:43.146Z,1.70
2024-02-24T04:30:43.087Z,1.70
2024-02-24T04:31:43.076Z,1.68
2024-02-24T04:32:43.137Z,1.71
2024-02-24T04:33:43.089Z,1.71
2024-02-24T04:34:43.083Z,1.72
2024-02-24T04:35:43.157Z,1.71
2024-02-24T04:36:43.029Z,1.72
2024-02-24T04:37:43.020Z,1.72
2024-02-24T04:38:43.068Z,1.74
2024-02-24T04:39:42.985Z,1.72
2024-02-24T04:40:42.967Z,1.72
2024-02-24T04:41:43.027Z,1.72
2024-02-24T04:42:42.959Z,1.74
2024-02-24T04:43:42.951Z,1.75
2024-02-24T04:44:42.996Z,1.75
2024-02-24T04:45:42.926Z,1.77
2024-02-24T04:46:42.908Z,1.77
2024-02-24T04:47:43.117Z,1.74
2024-02-24T04:48:42.969Z,1.72
2024-02-24T04:49:42.883Z,1.70
2024-02-24T04:50:42.933Z,1.68
2024-02-24T04:51:42.857Z,1.68
2024-02-24T04:52:42.852Z,1.68
2024-02-24T04:53:42.921Z,1.67
2024-02-24T04:54:42.836Z,1.68
2024-02-24T04:55:42.809Z,1.72
2024-02-24T04:56:42.867Z,1.72
2024-02-24T04:57:42.795Z,1.75
2024-02-24T04:58:42.768Z,1.79
2024-02-24T04:59:42.866Z,1.79
2024-02-24T05:00:42.811Z,1.82
2024-02-24T05:01:42.768Z,1.85
2024-02-24T05:02:42.941Z,1.86
2024-02-24T05:03:42.718Z,1.88
2024-02-24T05:04:42.706Z,1.90
2024-02-24T05:05:42.852Z,1.89
2024-02-24T05:06:42.730Z,1.90
2024-02-24T05:07:42.674Z,1.90
2024-02-24T05:08:42.743Z,1.92
2024-02-24T05:09:42.649Z,1.95
2024-02-24T05:10:42.661Z,1.93
2024-02-24T05:11:42.704Z,2.00
2024-02-24T05:12:42.625Z,2.00
2024-02-24T05:13:42.605Z,2.01
2024-02-24T05:14:42.610Z,2.01
2024-02-24T05:15:42.584Z,2.02
2024-02-24T05:16:42.574Z,2.01
2024-02-24T05:17:42.711Z,2.02
2024-02-24T05:18:42.633Z,2.05
2024-02-24T05:19:42.682Z,2.05
2024-02-24T05:20:42.578Z,2.04
2024-02-24T05:21:42.524Z,2.02
2024-02-24T05:22:42.515Z,1.93
2024-02-24T05:23:42.562Z,1.92
2024-02-24T05:24:42.483Z,1.92
2024-02-24T05:25:42.480Z,1.92
2024-02-24T05:26:42.567Z,1.93
2024-02-24T05:27:42.483Z,1.93
2024-02-24T05:28:42.441Z,1.95
2024-02-24T05:29:42.444Z,1.95
2024-02-24T05:30:42.433Z,1.95
2024-02-24T05:31:42.414Z,1.98
2024-02-24T05:32:42.461Z,1.90
2024-02-24T05:33:42.470Z,1.89
2024-02-24T05:34:42.434Z,1.89
2024-02-24T05:35:42.409Z,1.89
2024-02-24T05:36:42.350Z,1.95
2024-02-24T05:37:42.341Z,1.98
2024-02-24T05:38:42.359Z,2.01
2024-02-24T05:39:42.343Z,2.02
2024-02-24T05:40:42.296Z,2.05
2024-02-24T05:41:42.342Z,2.05
2024-02-24T05:42:42.288Z,2.05
2024-02-24T05:43:42.273Z,2.07
2024-02-24T05:44:42.326Z,2.07
2024-02-24T05:45:42.263Z,2.09
2024-02-24T05:46:42.252Z,2.09
2024-02-24T05:47:42.308Z,2.12
2024-02-24T05:48:42.316Z,2.12
2024-02-24T05:49:42.254Z,2.14
2024-02-24T05:50:42.215Z,2.14
2024-02-24T05:51:42.203Z,2.12
2024-02-24T05:52:42.186Z,2.14
2024-02-24T05:53:42.219Z,2.15
2024-02-24T05:54:42.159Z,2.15
2024-02-24T05:55:42.134Z,2.18
2024-02-24T05:56:42.139Z,2.18
2024-02-24T05:57:42.168Z,2.18
2024-02-24T05:58:42.107Z,2.18
2024-02-24T05:59:42.122Z,2.19
2024-02-24T06:00:42.133Z,2.19
2024-02-24T06:01:42.082Z,2.20
2024-02-24T06:02:42.087Z,2.22
2024-02-24T06:03:42.185Z,2.22
2024-02-24T06:04:42.119Z,2.23
2024-02-24T06:05:42.075Z,2.23
2024-02-24T06:06:42.058Z,2.25
2024-02-24T06:07:42.008Z,2.23
2024-02-24T06:08:42.028Z,2.25
2024-02-24T06:09:42.009Z,2.25
2024-02-24T06:10:42.019Z,2.25
2024-02-24T06:11:42.130Z,2.25
2024-02-24T06:12:41.958Z,2.26
2024-02-24T06:13:41.936Z,2.27
2024-02-24T06:14:41.981Z,2.25
2024-02-24T06:15:41.933Z,2.25
2024-02-24T06:16:41.900Z,2.25
2024-02-24T06:17:41.997Z,2.26
2024-02-24T06:18:42.038Z,2.26
2024-02-24T06:19:41.912Z,2.26
2024-02-24T06:20:41.875Z,2.27
2024-02-24T06:21:41.863Z,2.27
2024-02-24T06:22:41.832Z,2.29
2024-02-24T06:23:41.856Z,2.27
2024-02-24T06:24:41.814Z,2.29
2024-02-24T06:25:41.800Z,2.32
2024-02-24T06:26:41.827Z,2.32
2024-02-24T06:27:41.824Z,2.43
2024-02-24T06:28:41.781Z,2.51
2024-02-24T06:29:41.801Z,2.55
2024-02-24T06:30:41.785Z,2.58
2024-02-24T06:31:41.752Z,2.62
2024-02-24T06:32:41.827Z,2.63
2024-02-24T06:33:41.837Z,2.74
2024-02-24T06:34:41.875Z,2.76
2024-02-24T06:35:41.738Z,2.77
2024-02-24T06:36:41.679Z,2.77
2024-02-24T06:37:41.675Z,2.79
2024-02-24T06:38:41.735Z,2.77
2024-02-24T06:39:41.653Z,2.79
2024-02-24T06:40:45.942Z,2.76
2024-02-24T06:41:41.681Z,2.77
2024-02-24T06:42:41.614Z,2.74
2024-02-24T06:43:41.604Z,2.71
2024-02-24T06:44:41.614Z,2.73
2024-02-24T06:45:41.592Z,2.74
2024-02-24T06:46:41.573Z,2.74
2024-02-24T06:47:41.661Z,2.76
2024-02-24T06:48:41.628Z,2.76
2024-02-24T06:49:41.549Z,2.77
2024-02-24T06:50:41.582Z,2.77
2024-02-24T06:51:41.511Z,2.80
2024-02-24T06:52:41.515Z,2.80
2024-02-24T06:53:41.595Z,2.81
2024-02-24T06:54:41.491Z,2.83
2024-02-24T06:55:41.460Z,2.83
2024-02-24T06:56:41.557Z,2.84
2024-02-24T06:57:41.454Z,2.89
2024-02-24T06:58:41.445Z,2.92
2024-02-24T06:59:41.608Z,2.95
2024-02-24T07:00:41.469Z,2.97
2024-02-24T07:01:41.411Z,2.99
2024-02-24T07:02:41.503Z,3.02
2024-02-24T07:03:41.485Z,3.04
2024-02-24T07:04:41.367Z,3.04
2024-02-24T07:05:41.403Z,3.05
2024-02-24T07:06:41.353Z,3.05
2024-02-24T07:07:41.407Z,3.05
2024-02-24T07:08:41.358Z,3.05
2024-02-24T07:09:41.321Z,3.08
2024-02-24T07:10:41.300Z,3.10
2024-02-24T07:11:41.405Z,3.13
2024-02-24T07:12:43.687Z,3.13
2024-02-24T07:13:41.264Z,3.16
2024-02-24T07:14:41.314Z,3.20
2024-02-24T07:15:41.251Z,3.26
2024-02-24T07:16:41.246Z,3.33
2024-02-24T07:17:41.282Z,3.37
2024-02-24T07:18:41.285Z,3.39
2024-02-24T07:19:41.221Z,3.39
2024-02-24T07:20:41.213Z,3.39
2024-02-24T07:21:41.175Z,3.41
2024-02-24T07:22:41.166Z,3.42
2024-02-24T07:23:41.202Z,3.44
2024-02-24T07:24:41.143Z,3.42
2024-02-24T07:25:41.128Z,3.44
2024-02-24T07:26:41.226Z,3.44
2024-02-24T07:27:41.116Z,3.44
2024-02-24T07:28:41.101Z,3.45
2024-02-24T07:29:41.156Z,3.45
2024-02-24T07:30:41.087Z,3.45
2024-02-24T07:31:41.077Z,3.45
2024-02-24T07:32:43.592Z,3.49
2024-02-24T07:33:41.183Z,3.52
2024-02-24T07:34:41.120Z,3.53
2024-02-24T07:35:41.044Z,3.56
2024-02-24T07:36:41.026Z,3.60
2024-02-24T07:37:41.053Z,3.59
2024-02-24T07:38:41.049Z,3.62
2024-02-24T07:39:40.982Z,3.62
2024-02-24T07:40:41.007Z,3.62
2024-02-24T07:41:40.992Z,3.62
2024-02-24T07:42:40.951Z,3.63
2024-02-24T07:43:40.942Z,3.62
2024-02-24T07:44:41.005Z,3.62
2024-02-24T07:45:41.008Z,3.62
2024-02-24T07:46:40.923Z,3.60
2024-02-24T07:47:40.938Z,3.59
2024-02-24T07:48:41.022Z,3.62
2024-02-24T07:49:40.931Z,3.62
2024-02-24T07:50:40.905Z,3.62
2024-02-24T07:51:40.851Z,3.62
2024-02-24T07:52:40.850Z,3.62
2024-02-24T07:53:40.836Z,3.59
2024-02-24T07:54:40.812Z,3.59
2024-02-24T07:55:40.809Z,3.59
2024-02-24T07:56:40.838Z,3.59
2024-02-24T07:57:40.776Z,3.62
2024-02-24T07:58:40.764Z,3.64
2024-02-24T07:59:40.866Z,3.64
2024-02-24T08:00:40.816Z,3.63
2024-02-24T08:01:40.835Z,3.63
2024-02-24T08:02:40.759Z,3.63
2024-02-24T08:03:40.741Z,3.59
2024-02-24T08:04:40.751Z,3.53
2024-02-24T08:05:40.731Z,3.46
2024-02-24T08:06:40.719Z,3.42
2024-02-24T08:07:40.665Z,3.44
2024-02-24T08:08:40.692Z,3.42
2024-02-24T08:09:40.639Z,3.45
2024-02-24T08:10:40.636Z,3.45
2024-02-24T08:11:40.724Z,3.46
2024-02-24T08:12:40.696Z,3.53
2024-02-24T08:13:40.593Z,3.59
2024-02-24T08:14:40.636Z,3.60
2024-02-24T08:15:40.586Z,3.63
2024-02-24T08:16:40.575Z,3.62
2024-02-24T08:17:40.739Z,3.62
2024-02-24T08:18:40.625Z,3.62
2024-02-24T08:19:40.544Z,3.63
2024-02-24T08:20:40.604Z,3.64
2024-02-24T08:21:40.508Z,3.71
2024-02-24T08:22:40.507Z,3.74
2024-02-24T08:23:40.541Z,3.78
2024-02-24T08:24:40.514Z,3.78
2024-02-24T08:25:40.768Z,3.82
2024-02-24T08:26:41.515Z,3.88
2024-02-24T08:27:40.448Z,3.89
2024-02-24T08:28:40.429Z,3.84
2024-02-24T08:29:40.473Z,3.82
2024-02-24T08:30:40.424Z,3.88
2024-02-24T08:31:40.574Z,3.88
2024-02-24T08:32:40.489Z,3.90
2024-02-24T08:33:40.545Z,3.92
2024-02-24T08:34:40.405Z,3.93
2024-02-24T08:35:40.424Z,3.95
2024-02-24T08:36:40.542Z,3.99
2024-02-24T08:37:40.336Z,4.04
2024-02-24T08:38:40.604Z,4.10
2024-02-24T08:39:40.300Z,4.13
2024-02-24T08:40:40.316Z,4.17
2024-02-24T08:41:40.343Z,4.24
2024-02-24T08:42:40.276Z,4.26
2024-02-24T08:43:40.312Z,4.28
2024-02-24T08:44:40.313Z,4.35
2024-02-24T08:45:40.245Z,4.36
2024-02-24T08:46:40.228Z,4.38
2024-02-24T08:47:40.276Z,4.42
2024-02-24T08:48:40.354Z,4.43
2024-02-24T08:49:40.212Z,4.46
2024-02-24T08:50:40.203Z,4.44
2024-02-24T08:51:40.167Z,4.47
2024-02-24T08:52:46.635Z,4.47
2024-02-24T08:53:40.236Z,4.50
2024-02-24T08:54:40.161Z,4.54
2024-02-24T08:55:40.147Z,4.57
2024-02-24T08:56:40.162Z,4.61
2024-02-24T08:57:40.142Z,4.61
2024-02-24T08:58:40.102Z,4.62
2024-02-24T08:59:40.144Z,4.61
2024-02-24T09:00:40.076Z,4.61
2024-02-24T09:01:40.100Z,4.64
2024-02-24T09:02:40.084Z,4.64
2024-02-24T09:03:40.101Z,4.65
2024-02-24T09:04:40.161Z,4.67
2024-02-24T09:05:40.090Z,4.69
2024-02-24T09:06:40.209Z,4.68
2024-02-24T09:07:40.052Z,4.68
2024-02-24T09:08:40.024Z,4.69
2024-02-24T09:09:39.968Z,4.71
2024-02-24T09:10:39.962Z,4.75
2024-02-24T09:11:40.082Z,4.80
2024-02-24T09:12:39.949Z,4.86
2024-02-24T09:13:39.932Z,4.87
2024-02-24T09:14:39.954Z,4.88
2024-02-24T09:15:39.904Z,4.94
2024-02-24T09:16:39.892Z,4.99
2024-02-24T09:17:39.977Z,4.93
2024-02-24T09:18:39.953Z,4.80
2024-02-24T09:19:39.897Z,4.77
2024-02-24T09:20:39.873Z,4.75
2024-02-24T09:21:39.838Z,4.77
2024-02-24T09:22:39.819Z,4.83
2024-02-24T09:23:39.823Z,4.91
2024-02-24T09:24:39.823Z,4.97
2024-02-24T09:25:39.788Z,5.04
2024-02-24T09:26:39.827Z,5.06
2024-02-24T09:27:39.757Z,5.12
2024-02-24T09:28:39.760Z,5.12
2024-02-24T09:29:39.780Z,5.19
2024-02-24T09:30:39.752Z,5.22
2024-02-24T09:31:39.761Z,5.26
2024-02-24T09:32:39.765Z,5.26
2024-02-24T09:33:39.910Z,5.24
2024-02-24T09:34:39.728Z,5.29
2024-02-24T09:35:39.716Z,5.32
2024-02-24T09:36:39.671Z,5.37
2024-02-24T09:37:39.653Z,5.41
2024-02-24T09:38:39.672Z,5.45
2024-02-24T09:39:39.661Z,5.49
2024-02-24T09:40:39.634Z,5.56
2024-02-24T09:41:39.674Z,5.59
2024-02-24T09:42:39.601Z,5.63
2024-02-24T09:43:39.591Z,5.67
2024-02-24T09:44:39.635Z,5.75
2024-02-24T09:45:39.562Z,5.78
2024-02-24T09:46:39.552Z,5.84
2024-02-24T09:47:39.590Z,5.87
2024-02-24T09:48:39.630Z,5.87
2024-02-24T09:49:39.590Z,5.83
2024-02-24T09:50:39.717Z,5.80
2024-02-24T09:51:39.564Z,5.81
2024-02-24T09:52:39.487Z,5.81
2024-02-24T09:53:39.530Z,5.84
2024-02-24T09:54:39.469Z,5.85
2024-02-24T09:55:39.468Z,5.83
2024-02-24T09:56:39.517Z,5.83
2024-02-24T09:57:39.426Z,5.87
2024-02-24T09:58:39.440Z,5.93
2024-02-24T09:59:39.453Z,6.01
2024-02-24T10:00:39.406Z,6.08
2024-02-24T10:01:39.391Z,6.14
2024-02-24T10:02:39.448Z,6.20
2024-02-24T10:03:39.394Z,6.27
2024-02-24T10:04:39.395Z,6.36
2024-02-24T10:05:39.413Z,6.40
2024-02-24T10:06:39.370Z,6.50
2024-02-24T10:07:39.311Z,6.57
2024-02-24T10:08:39.403Z,6.63
2024-02-24T10:09:39.304Z,6.68
2024-02-24T10:10:39.294Z,6.76
2024-02-24T10:11:39.521Z,6.79
2024-02-24T10:12:39.303Z,6.86
2024-02-24T10:13:39.249Z,6.89
2024-02-24T10:14:39.294Z,6.91
2024-02-24T10:15:39.221Z,6.91
2024-02-24T10:16:39.392Z,6.96
2024-02-24T10:17:39.430Z,6.97
2024-02-24T10:18:39.297Z,6.99
2024-02-24T10:19:39.327Z,7.01
2024-02-24T10:20:39.205Z,7.05
2024-02-24T10:21:39.280Z,7.05
2024-02-24T10:22:39.214Z,7.07
2024-02-24T10:23:39.335Z,7.05
2024-02-24T10:24:39.128Z,6.97
2024-02-24T10:25:39.144Z,6.93
2024-02-24T10:26:39.168Z,6.87
2024-02-24T10:27:39.108Z,6.87
2024-02-24T10:28:39.085Z,6.90
2024-02-24T10:29:39.253Z,6.91
2024-02-24T10:30:39.060Z,6.96
2024-02-24T10:31:39.065Z,6.97
2024-02-24T10:32:39.129Z,7.01
2024-02-24T10:33:39.315Z,7.04
2024-02-24T10:34:39.109Z,7.09
2024-02-24T10:35:39.189Z,7.12
2024-02-24T10:36:39.097Z,7.14
2024-02-24T10:38:42.339Z,7.09
2024-02-24T10:39:39.158Z,7.05
2024-02-24T10:40:38.948Z,7.05
2024-02-24T10:41:38.971Z,6.97
2024-02-24T10:42:38.933Z,7.00
2024-02-24T10:43:38.913Z,7.04
2024-02-24T10:44:39.098Z,7.08
2024-02-24T10:45:38.896Z,7.11
2024-02-24T10:46:38.883Z,7.11
2024-02-24T10:47:38.973Z,7.14
2024-02-24T10:48:39.088Z,7.19
2024-02-24T10:49:38.873Z,7.24
2024-02-24T10:50:38.926Z,7.27
2024-02-24T10:51:38.831Z,7.30
2024-02-24T10:52:38.878Z,7.34
2024-02-24T10:53:38.825Z,7.39
2024-02-24T10:54:38.783Z,7.45
2024-02-24T10:55:38.829Z,7.52
2024-02-24T10:56:38.895Z,7.57
2024-02-24T10:57:38.817Z,7.58
2024-02-24T10:58:38.762Z,7.60
2024-02-24T10:59:38.757Z,7.63
2024-02-24T11:00:38.759Z,7.67
2024-02-24T11:01:38.720Z,7.67
2024-02-24T11:02:38.836Z,7.66
2024-02-24T11:03:38.724Z,7.66
2024-02-24T11:04:38.844Z,7.70
2024-02-24T11:05:38.726Z,7.69
2024-02-24T11:06:38.901Z,7.66
2024-02-24T11:07:38.749Z,7.48
2024-02-24T11:08:38.672Z,7.47
2024-02-24T11:09:38.696Z,7.51
2024-02-24T11:10:38.680Z,7.52
2024-02-24T11:11:38.686Z,7.55
2024-02-24T11:12:38.648Z,7.63
2024-02-24T11:13:38.633Z,7.54
2024-02-24T11:14:38.646Z,7.58
2024-02-24T11:15:38.560Z,7.70
2024-02-24T11:16:38.544Z,7.82
2024-02-24T11:17:38.589Z,7.92
2024-02-24T11:18:38.688Z,7.96
2024-02-24T11:19:38.531Z,8.00
2024-02-24T11:20:38.672Z,8.09
2024-02-24T11:21:38.497Z,8.12
2024-02-24T11:22:38.486Z,8.17
2024-02-24T11:23:38.488Z,8.14
2024-02-24T11:24:38.470Z,8.14
2024-02-24T11:25:38.444Z,8.10
2024-02-24T11:26:38.512Z,8.12
2024-02-24T11:27:38.468Z,8.14
2024-02-24T11:28:38.426Z,8.00
2024-02-24T11:29:38.450Z,8.07
2024-02-24T11:30:38.370Z,8.07
2024-02-24T11:31:38.373Z,8.07
2024-02-24T11:32:38.490Z,8.06
2024-02-24T11:33:38.621Z,8.06
2024-02-24T11:34:38.470Z,8.12
2024-02-24T11:35:38.343Z,8.17
2024-02-24T11:36:38.326Z,8.22
2024-02-24T11:37:38.333Z,8.25
2024-02-24T11:38:38.301Z,8.28
2024-02-24T11:39:39.026Z,8.27
2024-02-24T11:40:38.256Z,8.27
2024-02-24T11:41:38.301Z,8.25
2024-02-24T11:42:38.248Z,8.09
2024-02-24T11:43:38.245Z,7.96
2024-02-24T11:44:38.307Z,7.96
2024-02-24T11:45:38.805Z,8.03
2024-02-24T11:46:38.241Z,8.03
2024-02-24T11:47:38.401Z,8.03
2024-02-24T11:48:38.310Z,8.03
2024-02-24T11:49:38.241Z,8.00
2024-02-24T11:50:38.192Z,8.00
2024-02-24T11:51:38.412Z,7.94
2024-02-24T11:52:38.132Z,7.95
2024-02-24T11:53:38.171Z,7.99
2024-02-24T11:54:38.104Z,7.95
2024-02-24T11:55:38.098Z,7.71
2024-02-24T11:56:38.097Z,7.55
2024-02-24T11:57:38.073Z,7.55
2024-02-24T11:58:38.077Z,7.55
2024-02-24T11:59:38.088Z,7.55
2024-02-24T12:00:38.056Z,7.50
2024-02-24T12:01:38.028Z,7.45
2024-02-24T12:02:38.065Z,7.39
2024-02-24T12:03:38.003Z,7.42
2024-02-24T12:04:38.092Z,7.48
2024-02-24T12:05:38.028Z,7.44
2024-02-24T12:06:38.026Z,7.45
2024-02-24T12:07:37.957Z,7.48
2024-02-24T12:08:37.982Z,7.48
2024-02-24T12:09:37.949Z,7.48
2024-02-24T12:10:37.924Z,7.52
2024-02-24T12:11:38.011Z,7.50
2024-02-24T12:12:37.903Z,7.52
2024-02-24T12:13:37.888Z,7.60
2024-02-24T12:14:37.934Z,7.66
2024-02-24T12:15:37.896Z,7.74
2024-02-24T12:16:37.850Z,7.85
2024-02-24T12:17:37.923Z,7.95
2024-02-24T12:18:37.907Z,8.07
2024-02-24T12:19:37.925Z,8.18
2024-02-24T12:20:37.922Z,8.24
2024-02-24T12:21:37.798Z,8.28
2024-02-24T12:22:37.783Z,8.34
2024-02-24T12:23:37.859Z,8.47
2024-02-24T12:24:37.758Z,8.57
2024-02-24T12:25:37.748Z,8.64
2024-02-24T12:26:37.759Z,8.71
2024-02-24T12:27:37.729Z,8.78
2024-02-24T12:28:37.718Z,8.86
2024-02-24T12:29:37.739Z,8.93
2024-02-24T12:30:37.705Z,8.97
2024-02-24T12:31:37.689Z,9.03
2024-02-24T12:32:37.750Z,9.08
2024-02-24T12:33:37.975Z,9.01
2024-02-24T12:34:37.685Z,9.10
2024-02-24T12:35:37.706Z,9.12
2024-02-24T12:36:37.619Z,9.10
2024-02-24T12:37:37.625Z,9.01
2024-02-24T12:38:39.781Z,8.97
2024-02-24T12:39:37.592Z,8.96
2024-02-24T12:40:37.600Z,8.96
2024-02-24T12:41:37.611Z,8.91
2024-02-24T12:42:37.564Z,8.85
2024-02-24T12:43:37.590Z,8.76
2024-02-24T12:44:37.549Z,8.73
2024-02-24T12:45:37.522Z,8.76
2024-02-24T12:46:37.520Z,8.76
2024-02-24T12:47:37.595Z,8.78
2024-02-24T12:48:39.838Z,8.82
2024-02-24T12:49:37.591Z,8.91
2024-02-24T12:50:37.527Z,8.94
2024-02-24T12:51:37.495Z,8.98
2024-02-24T12:52:37.444Z,9.03
2024-02-24T12:53:37.497Z,9.03
2024-02-24T12:54:37.424Z,9.01
2024-02-24T12:55:37.419Z,8.89
2024-02-24T12:56:37.419Z,8.82
2024-02-24T12:57:37.408Z,8.75
2024-02-24T12:58:37.394Z,8.73
2024-02-24T12:59:37.424Z,8.71
2024-02-24T13:00:37.383Z,8.71
2024-02-24T13:01:37.365Z,8.71
2024-02-24T13:02:37.365Z,8.67
2024-02-24T13:03:37.348Z,8.64
2024-02-24T13:04:37.327Z,8.61
2024-02-24T13:05:37.372Z,8.63
2024-02-24T13:06:37.553Z,8.63
2024-02-24T13:07:37.276Z,8.61
2024-02-24T13:08:37.340Z,8.57
2024-02-24T13:09:37.324Z,8.58
2024-02-24T13:10:37.278Z,8.57
2024-02-24T13:11:37.313Z,8.58
2024-02-24T13:12:37.290Z,8.63
2024-02-24T13:13:37.207Z,8.67
2024-02-24T13:14:37.231Z,8.73
2024-02-24T13:15:37.182Z,8.78
2024-02-24T13:16:37.187Z,8.82
2024-02-24T13:17:37.301Z,8.78
2024-02-24T13:18:37.303Z,8.79
2024-02-24T13:19:37.213Z,8.82